Johnstown, Ohio
Current Conditions -  °F | °C
As of 10:51 PM on Monday 20 Oct 2014 (Local Time) from KCMH Reporting Station
Clear Clear  
Wind Chill: 52°   Ceiling: Unl
Heat Index: 52°   Visibility: 10mi
Dew Point: 48°   Wind: 3mph
Humidity: 86%   Direction: 210°SSW
Pressure: 29.88"   Gusts: NA
Location:  40.15°N, 82.69°W
Report Text: KCMH 210251Z 21003KT 10SM CLR 11/09 A2988 RMK AO2 SLP117 T01110089 50002
Loading
Personal Weather Stations






























Interactive Weather Map
Tropical Storm Tracking
New forecast layout! Learn more

10-Day Weather Forecast

Advertisements
Track Severe Weather on mobile